createdAt,value
2017-06-17T00:00:02.168Z,801.48
2017-06-17T00:00:06.482Z,801.47
2017-06-17T00:00:10.675Z,801.48
2017-06-17T00:00:15.102Z,801.45
2017-06-17T00:00:19.526Z,801.5
2017-06-17T00:00:23.950Z,801.46
2017-06-17T00:00:28.383Z,801.42
2017-06-17T00:00:32.572Z,801.47
2017-06-17T00:00:36.876Z,801.49
2017-06-17T00:00:41.180Z,801.5
2017-06-17T00:00:45.482Z,801.46
2017-06-17T00:00:49.793Z,801.47
2017-06-17T00:00:54.225Z,801.48
2017-06-17T00:00:58.663Z,801.47
2017-06-17T00:01:03.271Z,801.46
2017-06-17T00:01:07.458Z,801.44
2017-06-17T00:01:11.768Z,801.46
2017-06-17T00:01:16.077Z,801.47
2017-06-17T00:01:20.525Z,801.47
2017-06-17T00:01:24.831Z,801.48
2017-06-17T00:01:29.252Z,801.44
2017-06-17T00:01:33.439Z,801.47
2017-06-17T00:01:37.750Z,801.48
2017-06-17T00:01:42.070Z,801.51
2017-06-17T00:01:46.493Z,801.5
2017-06-17T00:01:50.919Z,801.5
2017-06-17T00:01:55.226Z,801.51
2017-06-17T00:01:59.648Z,801.48
2017-06-17T00:02:03.835Z,801.46
2017-06-17T00:02:08.478Z,801.44
2017-06-17T00:02:12.788Z,801.45
2017-06-17T00:02:17.087Z,801.43
2017-06-17T00:02:21.270Z,801.45
2017-06-17T00:02:25.692Z,801.47
2017-06-17T00:02:30.006Z,801.5
2017-06-17T00:02:34.201Z,801.49
2017-06-17T00:02:38.619Z,801.52
2017-06-17T00:02:42.810Z,801.49
2017-06-17T00:02:47.230Z,801.44
2017-06-17T00:02:51.653Z,801.48
2017-06-17T00:02:56.083Z,801.5
2017-06-17T00:03:00.386Z,801.52
2017-06-17T00:03:04.813Z,801.5
2017-06-17T00:03:09.230Z,801.48
2017-06-17T00:03:13.533Z,801.5
2017-06-17T00:03:17.955Z,801.51
2017-06-17T00:03:22.391Z,801.46
2017-06-17T00:03:26.701Z,801.49
2017-06-17T00:03:31.006Z,801.5
2017-06-17T00:03:35.429Z,801.49
2017-06-17T00:03:39.615Z,801.49
2017-06-17T00:03:43.925Z,801.49
2017-06-17T00:03:48.348Z,801.47
2017-06-17T00:03:52.774Z,801.45
2017-06-17T00:03:57.080Z,801.5
2017-06-17T00:04:01.383Z,801.49
2017-06-17T00:04:05.690Z,801.53
2017-06-17T00:04:09.879Z,801.5
2017-06-17T00:04:14.185Z,801.52
2017-06-17T00:04:18.488Z,801.47
2017-06-17T00:04:22.684Z,801.51
2017-06-17T00:04:27.103Z,801.54
2017-06-17T00:04:31.528Z,801.53
2017-06-17T00:04:35.748Z,801.53
2017-06-17T00:04:40.066Z,801.53
2017-06-17T00:04:44.370Z,801.5
2017-06-17T00:04:48.795Z,801.5
2017-06-17T00:04:53.224Z,801.53
2017-06-17T00:04:57.537Z,801.56
2017-06-17T00:05:01.958Z,801.53
2017-06-17T00:05:06.155Z,801.53
2017-06-17T00:05:10.580Z,801.53
2017-06-17T00:05:14.888Z,801.53
2017-06-17T00:05:19.200Z,801.52
2017-06-17T00:05:23.403Z,801.52
2017-06-17T00:05:27.827Z,801.46
2017-06-17T00:05:32.129Z,801.53
2017-06-17T00:05:36.550Z,801.53
2017-06-17T00:05:40.978Z,801.53
2017-06-17T00:05:45.405Z,801.48
2017-06-17T00:05:49.829Z,801.54
2017-06-17T00:05:54.249Z,801.53
2017-06-17T00:05:58.552Z,801.51
2017-06-17T00:06:02.982Z,801.56
2017-06-17T00:06:07.289Z,801.52
2017-06-17T00:06:11.483Z,801.54
2017-06-17T00:06:15.693Z,801.54
2017-06-17T00:06:19.998Z,801.52
2017-06-17T00:06:24.423Z,801.51
2017-06-17T00:06:28.848Z,801.53
2017-06-17T00:06:33.271Z,801.52
2017-06-17T00:06:37.721Z,801.55
2017-06-17T00:06:42.144Z,801.54
2017-06-17T00:06:46.570Z,801.55
2017-06-17T00:06:50.991Z,801.52
2017-06-17T00:06:55.414Z,801.53
2017-06-17T00:06:59.847Z,801.54
2017-06-17T00:07:04.275Z,801.53
2017-06-17T00:07:08.754Z,801.5
2017-06-17T00:07:13.174Z,801.53
2017-06-17T00:07:17.597Z,801.53
2017-06-17T00:07:21.783Z,801.53
2017-06-17T00:07:26.213Z,801.5
2017-06-17T00:07:30.639Z,801.52
2017-06-17T00:07:35.057Z,801.49
2017-06-17T00:07:39.478Z,801.51
2017-06-17T00:07:43.900Z,801.54
2017-06-17T00:07:48.329Z,801.53
2017-06-17T00:07:52.750Z,801.53
2017-06-17T00:07:57.177Z,801.54
2017-06-17T00:08:01.601Z,801.55
2017-06-17T00:08:05.842Z,801.52
2017-06-17T00:08:10.270Z,801.53
2017-06-17T00:08:14.583Z,801.55
2017-06-17T00:08:19.010Z,801.55
2017-06-17T00:08:23.319Z,801.49
2017-06-17T00:08:27.745Z,801.54
2017-06-17T00:08:32.051Z,801.51
2017-06-17T00:08:36.483Z,801.49
2017-06-17T00:08:40.784Z,801.51
2017-06-17T00:08:45.203Z,801.52
2017-06-17T00:08:49.505Z,801.53
2017-06-17T00:08:53.925Z,801.5
2017-06-17T00:08:58.354Z,801.52
2017-06-17T00:09:03.080Z,801.54
2017-06-17T00:09:07.268Z,801.53
2017-06-17T00:09:11.687Z,801.54
2017-06-17T00:09:15.991Z,801.51
2017-06-17T00:09:20.416Z,801.56
2017-06-17T00:09:24.734Z,801.54
2017-06-17T00:09:29.170Z,801.55
2017-06-17T00:09:33.471Z,801.57
2017-06-17T00:09:37.788Z,801.56
2017-06-17T00:09:41.976Z,801.56
2017-06-17T00:09:46.401Z,801.52
2017-06-17T00:09:50.831Z,801.55
2017-06-17T00:09:55.016Z,801.54
2017-06-17T00:09:59.436Z,801.57
2017-06-17T00:10:03.869Z,801.57
2017-06-17T00:10:07.946Z,801.56
2017-06-17T00:10:12.252Z,801.56
2017-06-17T00:10:16.673Z,801.55
2017-06-17T00:10:21.091Z,801.52
2017-06-17T00:10:25.518Z,801.55
2017-06-17T00:10:29.947Z,801.57
2017-06-17T00:10:34.376Z,801.57
2017-06-17T00:10:38.794Z,801.55
2017-06-17T00:10:42.868Z,801.58
2017-06-17T00:10:47.288Z,801.56
2017-06-17T00:10:51.600Z,801.57
2017-06-17T00:10:55.913Z,801.57
2017-06-17T00:11:00.336Z,801.57
2017-06-17T00:11:04.621Z,801.6
2017-06-17T00:11:08.695Z,801.54
2017-06-17T00:11:12.762Z,801.57
2017-06-17T00:11:17.187Z,801.58
2017-06-17T00:11:21.498Z,801.55
2017-06-17T00:11:25.916Z,801.57
2017-06-17T00:11:30.335Z,801.57
2017-06-17T00:11:34.529Z,801.52
2017-06-17T00:11:38.972Z,801.59
2017-06-17T00:11:43.271Z,801.58
2017-06-17T00:11:47.694Z,801.57
2017-06-17T00:11:52.121Z,801.57
2017-06-17T00:11:56.306Z,801.57
2017-06-17T00:12:00.765Z,801.56
2017-06-17T00:12:05.329Z,801.58
2017-06-17T00:12:09.525Z,801.58
2017-06-17T00:12:13.711Z,801.59
2017-06-17T00:12:17.893Z,801.59
2017-06-17T00:12:22.090Z,801.55
2017-06-17T00:12:26.521Z,801.59
2017-06-17T00:12:30.831Z,801.58
2017-06-17T00:12:35.135Z,801.57
2017-06-17T00:12:39.556Z,801.59
2017-06-17T00:12:43.986Z,801.62
2017-06-17T00:12:48.407Z,801.62
2017-06-17T00:12:52.826Z,801.59
2017-06-17T00:12:57.131Z,801.56
2017-06-17T00:13:01.552Z,801.55
2017-06-17T00:13:05.855Z,801.59
2017-06-17T00:13:10.194Z,801.6
2017-06-17T00:13:14.150Z,801.57
2017-06-17T00:13:18.341Z,801.62
2017-06-17T00:13:22.766Z,801.59
2017-06-17T00:13:27.181Z,801.56
2017-06-17T00:13:31.606Z,801.61
2017-06-17T00:13:36.064Z,801.62
2017-06-17T00:13:40.482Z,801.63
2017-06-17T00:13:44.669Z,801.61
2017-06-17T00:13:49.092Z,801.62
2017-06-17T00:13:53.286Z,801.56
2017-06-17T00:13:57.593Z,801.62
2017-06-17T00:14:01.895Z,801.6
2017-06-17T00:14:06.024Z,801.62
2017-06-17T00:14:10.458Z,801.61
2017-06-17T00:14:14.640Z,801.65
2017-06-17T00:14:19.072Z,801.63
2017-06-17T00:14:23.378Z,801.58
2017-06-17T00:14:27.807Z,801.63
2017-06-17T00:14:32.112Z,801.63
2017-06-17T00:14:36.542Z,801.63
2017-06-17T00:14:40.972Z,801.64
2017-06-17T00:14:45.174Z,801.62
2017-06-17T00:14:49.599Z,801.63
2017-06-17T00:14:53.907Z,801.61
2017-06-17T00:14:58.333Z,801.63
2017-06-17T00:15:02.635Z,801.61
2017-06-17T00:15:06.971Z,801.64
2017-06-17T00:15:11.288Z,801.62
2017-06-17T00:15:15.475Z,801.67
2017-06-17T00:15:19.788Z,801.65
2017-06-17T00:15:24.214Z,801.61
2017-06-17T00:15:28.639Z,801.64
2017-06-17T00:15:32.950Z,801.64
2017-06-17T00:15:37.252Z,801.58
2017-06-17T00:15:41.681Z,801.63
2017-06-17T00:15:46.099Z,801.65
2017-06-17T00:15:50.526Z,801.66
2017-06-17T00:15:54.979Z,801.63
2017-06-17T00:15:59.403Z,801.61
2017-06-17T00:16:03.711Z,801.66
2017-06-17T00:16:08.018Z,801.66
2017-06-17T00:16:12.202Z,801.65
2017-06-17T00:16:16.390Z,801.66
2017-06-17T00:16:20.703Z,801.66
2017-06-17T00:16:25.129Z,801.65
2017-06-17T00:16:29.447Z,801.64
2017-06-17T00:16:33.874Z,801.63
2017-06-17T00:16:38.293Z,801.68
2017-06-17T00:16:42.721Z,801.69
2017-06-17T00:16:47.153Z,801.68
2017-06-17T00:16:51.575Z,801.65
2017-06-17T00:16:55.772Z,801.67
2017-06-17T00:17:00.076Z,801.68
2017-06-17T00:17:04.504Z,801.7
2017-06-17T00:17:08.817Z,801.67
2017-06-17T00:17:13.147Z,801.63
2017-06-17T00:17:17.339Z,801.6
2017-06-17T00:17:21.759Z,801.65
2017-06-17T00:17:26.182Z,801.66
2017-06-17T00:17:30.489Z,801.69
2017-06-17T00:17:34.921Z,801.68
2017-06-17T00:17:39.365Z,801.65
2017-06-17T00:17:43.793Z,801.67
2017-06-17T00:17:48.213Z,801.66
2017-06-17T00:17:52.640Z,801.61
2017-06-17T00:17:57.065Z,801.62
2017-06-17T00:18:01.493Z,801.63
2017-06-17T00:18:05.796Z,801.69
2017-06-17T00:18:09.983Z,801.66
2017-06-17T00:18:14.169Z,801.65
2017-06-17T00:18:18.118Z,801.65
2017-06-17T00:18:22.311Z,801.68
2017-06-17T00:18:26.738Z,801.65
2017-06-17T00:18:31.043Z,801.67
2017-06-17T00:18:35.346Z,801.63
2017-06-17T00:18:39.648Z,801.64
2017-06-17T00:18:44.075Z,801.63
2017-06-17T00:18:48.502Z,801.66
2017-06-17T00:18:52.921Z,801.62
2017-06-17T00:18:57.228Z,801.63
2017-06-17T00:19:01.646Z,801.64
2017-06-17T00:19:05.998Z,801.61
2017-06-17T00:19:10.422Z,801.68
2017-06-17T00:19:14.624Z,801.64
2017-06-17T00:19:19.043Z,801.62
2017-06-17T00:19:23.229Z,801.65
2017-06-17T00:19:27.653Z,801.63
2017-06-17T00:19:31.963Z,801.64
2017-06-17T00:19:36.277Z,801.66
2017-06-17T00:19:40.599Z,801.6
2017-06-17T00:19:44.904Z,801.59
2017-06-17T00:19:49.328Z,801.59
2017-06-17T00:19:53.749Z,801.6
2017-06-17T00:19:58.170Z,801.61
2017-06-17T00:20:02.782Z,801.62
2017-06-17T00:20:06.858Z,801.62
2017-06-17T00:20:11.056Z,801.63
2017-06-17T00:20:15.364Z,801.62
2017-06-17T00:20:19.792Z,801.62
2017-06-17T00:20:24.099Z,801.59
2017-06-17T00:20:28.522Z,801.61
2017-06-17T00:20:32.833Z,801.6
2017-06-17T00:20:37.252Z,801.62
2017-06-17T00:20:41.324Z,801.64
2017-06-17T00:20:45.632Z,801.61
2017-06-17T00:20:50.060Z,801.62
2017-06-17T00:20:54.249Z,801.63
2017-06-17T00:20:58.669Z,801.63
2017-06-17T00:21:03.173Z,801.61
2017-06-17T00:21:07.477Z,801.63
2017-06-17T00:21:11.794Z,801.63
2017-06-17T00:21:16.099Z,801.59
2017-06-17T00:21:20.520Z,801.64
2017-06-17T00:21:24.709Z,801.61
2017-06-17T00:21:29.136Z,801.61
2017-06-17T00:21:33.566Z,801.63
2017-06-17T00:21:38.013Z,801.61
2017-06-17T00:21:42.439Z,801.62
2017-06-17T00:21:46.757Z,801.62
2017-06-17T00:21:51.177Z,801.62
2017-06-17T00:21:55.365Z,801.62
2017-06-17T00:21:59.796Z,801.64
2017-06-17T00:22:04.108Z,801.64
2017-06-17T00:22:08.534Z,801.66
2017-06-17T00:22:12.606Z,801.64
2017-06-17T00:22:16.910Z,801.63
2017-06-17T00:22:21.097Z,801.64
2017-06-17T00:22:25.529Z,801.64
2017-06-17T00:22:29.949Z,801.63
2017-06-17T00:22:34.373Z,801.62
2017-06-17T00:22:38.798Z,801.61
2017-06-17T00:22:43.104Z,801.63
2017-06-17T00:22:47.537Z,801.61
2017-06-17T00:22:51.850Z,801.56
2017-06-17T00:22:56.044Z,801.57
2017-06-17T00:23:00.353Z,801.64
2017-06-17T00:23:04.570Z,801.61
2017-06-17T00:23:08.998Z,801.62
2017-06-17T00:23:13.436Z,801.61
2017-06-17T00:23:17.744Z,801.63
2017-06-17T00:23:21.928Z,801.63
2017-06-17T00:23:26.346Z,801.64
2017-06-17T00:23:30.538Z,801.59
2017-06-17T00:23:34.853Z,801.6
2017-06-17T00:23:39.159Z,801.63
2017-06-17T00:23:43.582Z,801.6
2017-06-17T00:23:48.005Z,801.61
2017-06-17T00:23:52.193Z,801.6
2017-06-17T00:23:56.381Z,801.63
2017-06-17T00:24:00.836Z,801.65
2017-06-17T00:24:05.289Z,801.64
2017-06-17T00:24:09.479Z,801.63
2017-06-17T00:24:13.780Z,801.64
2017-06-17T00:24:17.971Z,801.66
2017-06-17T00:24:22.278Z,801.64
2017-06-17T00:24:26.708Z,801.67
2017-06-17T00:24:31.131Z,801.64
2017-06-17T00:24:35.437Z,801.63
2017-06-17T00:24:39.739Z,801.66
2017-06-17T00:24:44.160Z,801.67
2017-06-17T00:24:48.351Z,801.63
2017-06-17T00:24:52.537Z,801.59
2017-06-17T00:24:56.959Z,801.63
2017-06-17T00:25:01.384Z,801.61
2017-06-17T00:25:05.834Z,801.65
2017-06-17T00:25:10.264Z,801.59
2017-06-17T00:25:14.488Z,801.63
2017-06-17T00:25:18.792Z,801.62
2017-06-17T00:25:23.099Z,801.64
2017-06-17T00:25:27.522Z,801.64
2017-06-17T00:25:31.709Z,801.58
2017-06-17T00:25:36.020Z,801.61
2017-06-17T00:25:40.442Z,801.63
2017-06-17T00:25:44.751Z,801.64
2017-06-17T00:25:49.056Z,801.66
2017-06-17T00:25:53.483Z,801.66
2017-06-17T00:25:57.791Z,801.6
2017-06-17T00:26:02.217Z,801.66
2017-06-17T00:26:06.518Z,801.66
2017-06-17T00:26:10.818Z,801.65
2017-06-17T00:26:15.124Z,801.67
2017-06-17T00:26:19.431Z,801.66
2017-06-17T00:26:23.748Z,801.67
2017-06-17T00:26:28.057Z,801.69
2017-06-17T00:26:32.478Z,801.65
2017-06-17T00:26:36.899Z,801.64
2017-06-17T00:26:40.965Z,801.6
2017-06-17T00:26:45.398Z,801.62
2017-06-17T00:26:49.591Z,801.61
2017-06-17T00:26:54.017Z,801.67
2017-06-17T00:26:58.437Z,801.65
2017-06-17T00:27:02.747Z,801.65
2017-06-17T00:27:07.053Z,801.64
2017-06-17T00:27:11.364Z,801.65
2017-06-17T00:27:15.818Z,801.67
2017-06-17T00:27:20.120Z,801.62
2017-06-17T00:27:24.420Z,801.63
2017-06-17T00:27:28.725Z,801.66
2017-06-17T00:27:33.034Z,801.61
2017-06-17T00:27:37.492Z,801.67
2017-06-17T00:27:41.685Z,801.64
2017-06-17T00:27:46.109Z,801.65
2017-06-17T00:27:50.420Z,801.64
2017-06-17T00:27:54.725Z,801.65
2017-06-17T00:27:59.186Z,801.67
2017-06-17T00:28:03.765Z,801.66
2017-06-17T00:28:07.839Z,801.62
2017-06-17T00:28:12.264Z,801.61
2017-06-17T00:28:16.567Z,801.63
2017-06-17T00:28:20.874Z,801.68
2017-06-17T00:28:25.337Z,801.68
2017-06-17T00:28:29.769Z,801.67
2017-06-17T00:28:33.956Z,801.67
2017-06-17T00:28:38.382Z,801.66
2017-06-17T00:28:42.688Z,801.65
2017-06-17T00:28:47.123Z,801.64
2017-06-17T00:28:51.542Z,801.64
2017-06-17T00:28:55.850Z,801.67
2017-06-17T00:29:00.159Z,801.65
2017-06-17T00:29:04.588Z,801.67
2017-06-17T00:29:09.014Z,801.66
2017-06-17T00:29:13.323Z,801.67
2017-06-17T00:29:17.514Z,801.63
2017-06-17T00:29:21.823Z,801.68
2017-06-17T00:29:26.126Z,801.63
2017-06-17T00:29:30.429Z,801.67
2017-06-17T00:29:34.620Z,801.66
2017-06-17T00:29:39.045Z,801.65
2017-06-17T00:29:43.356Z,801.66
2017-06-17T00:29:47.669Z,801.65
2017-06-17T00:29:51.971Z,801.62
2017-06-17T00:29:56.281Z,801.67
2017-06-17T00:30:00.710Z,801.62
2017-06-17T00:30:05.246Z,801.65
2017-06-17T00:30:09.319Z,801.65
2017-06-17T00:30:13.743Z,801.67
2017-06-17T00:30:18.177Z,801.66
2017-06-17T00:30:22.604Z,801.67
2017-06-17T00:30:27.034Z,801.66
2017-06-17T00:30:31.458Z,801.62
2017-06-17T00:30:35.884Z,801.69
2017-06-17T00:30:40.310Z,801.69
2017-06-17T00:30:44.762Z,801.68
2017-06-17T00:30:49.184Z,801.66
2017-06-17T00:30:53.611Z,801.67
2017-06-17T00:30:57.915Z,801.66
2017-06-17T00:31:02.337Z,801.67
2017-06-17T00:31:06.760Z,801.71
2017-06-17T00:31:11.065Z,801.69
2017-06-17T00:31:15.373Z,801.7
2017-06-17T00:31:19.798Z,801.74
2017-06-17T00:31:24.103Z,801.7
2017-06-17T00:31:28.520Z,801.74
2017-06-17T00:31:32.830Z,801.67
2017-06-17T00:31:37.259Z,801.73
2017-06-17T00:31:41.563Z,801.68
2017-06-17T00:31:45.986Z,801.72
2017-06-17T00:31:50.412Z,801.71
2017-06-17T00:31:54.835Z,801.71
2017-06-17T00:31:59.171Z,801.74
2017-06-17T00:32:03.596Z,801.69
2017-06-17T00:32:08.014Z,801.73
2017-06-17T00:32:12.741Z,801.73
2017-06-17T00:32:17.043Z,801.71
2017-06-17T00:32:21.473Z,801.73
2017-06-17T00:32:25.906Z,801.73
2017-06-17T00:32:30.094Z,801.74
2017-06-17T00:32:34.518Z,801.74
2017-06-17T00:32:38.821Z,801.72
2017-06-17T00:32:43.128Z,801.73
2017-06-17T00:32:47.564Z,801.71
2017-06-17T00:32:51.875Z,801.72
2017-06-17T00:32:56.194Z,801.75
2017-06-17T00:33:00.616Z,801.7
2017-06-17T00:33:05.029Z,801.74
2017-06-17T00:33:09.457Z,801.74
2017-06-17T00:33:13.642Z,801.71
2017-06-17T00:33:18.062Z,801.73
2017-06-17T00:33:22.368Z,801.74
2017-06-17T00:33:26.670Z,801.76
2017-06-17T00:33:30.979Z,801.76
2017-06-17T00:33:35.414Z,801.73
2017-06-17T00:33:39.715Z,801.72
2017-06-17T00:33:44.136Z,801.74
2017-06-17T00:33:48.557Z,801.79
2017-06-17T00:33:52.977Z,801.75
2017-06-17T00:33:57.166Z,801.78
2017-06-17T00:34:01.506Z,801.76
2017-06-17T00:34:06.180Z,801.77
2017-06-17T00:34:10.601Z,801.75
2017-06-17T00:34:14.904Z,801.78
2017-06-17T00:34:19.204Z,801.75
2017-06-17T00:34:23.281Z,801.78
2017-06-17T00:34:27.480Z,801.79
2017-06-17T00:34:31.791Z,801.79
2017-06-17T00:34:35.977Z,801.77
2017-06-17T00:34:40.282Z,801.78
2017-06-17T00:34:44.706Z,801.78
2017-06-17T00:34:49.042Z,801.74
2017-06-17T00:34:53.234Z,801.78
2017-06-17T00:34:57.655Z,801.82
2017-06-17T00:35:01.954Z,801.8
2017-06-17T00:35:06.140Z,801.73
2017-06-17T00:35:10.578Z,801.81
2017-06-17T00:35:14.772Z,801.78
2017-06-17T00:35:18.841Z,801.77
2017-06-17T00:35:23.034Z,801.8
2017-06-17T00:35:27.459Z,801.73
2017-06-17T00:35:31.764Z,801.79
2017-06-17T00:35:35.980Z,801.8
2017-06-17T00:35:40.282Z,801.75
2017-06-17T00:35:44.704Z,801.72
2017-06-17T00:35:49.125Z,801.79
2017-06-17T00:35:53.547Z,801.76
2017-06-17T00:35:57.853Z,801.74
2017-06-17T00:36:02.167Z,801.73
2017-06-17T00:36:06.479Z,801.8
2017-06-17T00:36:10.783Z,801.77
2017-06-17T00:36:14.974Z,801.79
2017-06-17T00:36:19.278Z,801.8
2017-06-17T00:36:23.702Z,801.78
2017-06-17T00:36:28.144Z,801.76
2017-06-17T00:36:32.567Z,801.82
2017-06-17T00:36:36.988Z,801.78
2017-06-17T00:36:41.295Z,801.8
2017-06-17T00:36:45.715Z,801.78
2017-06-17T00:36:50.145Z,801.79
2017-06-17T00:36:54.574Z,801.77
2017-06-17T00:36:58.996Z,801.8
2017-06-17T00:37:03.304Z,801.81
2017-06-17T00:37:07.725Z,801.82
2017-06-17T00:37:12.146Z,801.78
2017-06-17T00:37:16.336Z,801.8
2017-06-17T00:37:20.639Z,801.83
2017-06-17T00:37:24.947Z,801.81
2017-06-17T00:37:29.375Z,801.81
2017-06-17T00:37:33.799Z,801.76
2017-06-17T00:37:38.107Z,801.75
2017-06-17T00:37:42.406Z,801.77
2017-06-17T00:37:46.711Z,801.83
2017-06-17T00:37:51.139Z,801.8
2017-06-17T00:37:55.442Z,801.84
2017-06-17T00:37:59.750Z,801.81
2017-06-17T00:38:04.057Z,801.85
2017-06-17T00:38:08.357Z,801.84
2017-06-17T00:38:12.540Z,801.84
2017-06-17T00:38:16.607Z,801.85
2017-06-17T00:38:20.908Z,801.84
2017-06-17T00:38:25.216Z,801.85
2017-06-17T00:38:29.527Z,801.86
2017-06-17T00:38:33.832Z,801.84
2017-06-17T00:38:38.261Z,801.83
2017-06-17T00:38:42.691Z,801.83
2017-06-17T00:38:47.001Z,801.84
2017-06-17T00:38:51.316Z,801.82
2017-06-17T00:38:55.620Z,801.86
2017-06-17T00:38:59.926Z,801.82
2017-06-17T00:39:04.232Z,801.83
2017-06-17T00:39:08.663Z,801.83
2017-06-17T00:39:12.966Z,801.85
2017-06-17T00:39:17.303Z,801.82
2017-06-17T00:39:21.726Z,801.8
2017-06-17T00:39:26.147Z,801.86
2017-06-17T00:39:30.565Z,801.84
2017-06-17T00:39:34.870Z,801.81
2017-06-17T00:39:39.320Z,801.85
2017-06-17T00:39:43.626Z,801.83
2017-06-17T00:39:47.929Z,801.83
2017-06-17T00:39:52.114Z,801.78
2017-06-17T00:39:56.413Z,801.84
2017-06-17T00:40:00.835Z,801.84
2017-06-17T00:40:05.238Z,801.81
2017-06-17T00:40:09.543Z,801.82
2017-06-17T00:40:13.849Z,801.83
2017-06-17T00:40:18.155Z,801.85
2017-06-17T00:40:22.588Z,801.83
2017-06-17T00:40:27.021Z,801.77
2017-06-17T00:40:31.448Z,801.85
2017-06-17T00:40:35.751Z,801.81
2017-06-17T00:40:40.056Z,801.84
2017-06-17T00:40:44.240Z,801.87
2017-06-17T00:40:48.553Z,801.86
2017-06-17T00:40:52.975Z,801.83
2017-06-17T00:40:57.161Z,801.85
2017-06-17T00:41:01.467Z,801.84
2017-06-17T00:41:05.771Z,801.83
2017-06-17T00:41:10.208Z,801.86
2017-06-17T00:41:14.644Z,801.87
2017-06-17T00:41:18.947Z,801.85
2017-06-17T00:41:23.254Z,801.82
2017-06-17T00:41:27.676Z,801.81
2017-06-17T00:41:32.108Z,801.81
2017-06-17T00:41:36.425Z,801.83
2017-06-17T00:41:40.731Z,801.86
2017-06-17T00:41:44.922Z,801.81
2017-06-17T00:41:49.346Z,801.83
2017-06-17T00:41:53.652Z,801.85
2017-06-17T00:41:57.959Z,801.83
2017-06-17T00:42:02.442Z,801.84
2017-06-17T00:42:06.513Z,801.89
2017-06-17T00:42:10.826Z,801.82
2017-06-17T00:42:15.016Z,801.83
2017-06-17T00:42:19.340Z,801.83
2017-06-17T00:42:23.675Z,801.86
2017-06-17T00:42:28.097Z,801.86
2017-06-17T00:42:32.528Z,801.9
2017-06-17T00:42:36.956Z,801.87
2017-06-17T00:42:41.377Z,801.84
2017-06-17T00:42:45.691Z,801.86
2017-06-17T00:42:49.996Z,801.83
2017-06-17T00:42:54.300Z,801.87
2017-06-17T00:42:58.724Z,801.8
2017-06-17T00:43:03.150Z,801.88
2017-06-17T00:43:07.580Z,801.9
2017-06-17T00:43:11.884Z,801.83
2017-06-17T00:43:16.306Z,801.86
2017-06-17T00:43:20.496Z,801.85
2017-06-17T00:43:24.916Z,801.83
2017-06-17T00:43:29.343Z,801.85
2017-06-17T00:43:33.435Z,801.88
2017-06-17T00:43:37.746Z,801.86
2017-06-17T00:43:41.935Z,801.9
2017-06-17T00:43:46.353Z,801.88
2017-06-17T00:43:50.779Z,801.87
2017-06-17T00:43:55.087Z,801.9
2017-06-17T00:43:59.517Z,801.83
2017-06-17T00:44:04.042Z,801.82
2017-06-17T00:44:08.466Z,801.84
2017-06-17T00:44:12.774Z,801.88
2017-06-17T00:44:17.194Z,801.89
2017-06-17T00:44:21.509Z,801.89
2017-06-17T00:44:25.816Z,801.85
2017-06-17T00:44:30.010Z,801.84
2017-06-17T00:44:34.462Z,801.88
2017-06-17T00:44:38.892Z,801.85
2017-06-17T00:44:43.208Z,801.87
2017-06-17T00:44:47.631Z,801.86
2017-06-17T00:44:52.053Z,801.87
2017-06-17T00:44:56.481Z,801.85
2017-06-17T00:45:00.786Z,801.86
2017-06-17T00:45:05.208Z,801.88
2017-06-17T00:45:09.512Z,801.87
2017-06-17T00:45:13.824Z,801.88
2017-06-17T00:45:18.255Z,801.91
2017-06-17T00:45:22.565Z,801.9
2017-06-17T00:45:26.988Z,801.89
2017-06-17T00:45:31.413Z,801.89
2017-06-17T00:45:35.835Z,801.85
2017-06-17T00:45:40.029Z,801.88
2017-06-17T00:45:44.456Z,801.88
2017-06-17T00:45:48.769Z,801.87
2017-06-17T00:45:53.070Z,801.9
2017-06-17T00:45:57.260Z,801.9
2017-06-17T00:46:01.686Z,801.87
2017-06-17T00:46:06.160Z,801.84
2017-06-17T00:46:10.590Z,801.87
2017-06-17T00:46:14.693Z,801.84
2017-06-17T00:46:19.118Z,801.89
2017-06-17T00:46:23.309Z,801.87
2017-06-17T00:46:27.613Z,801.87
2017-06-17T00:46:31.923Z,801.88
2017-06-17T00:46:36.233Z,801.83
2017-06-17T00:46:40.535Z,801.84
2017-06-17T00:46:44.960Z,801.86
2017-06-17T00:46:49.271Z,801.84
2017-06-17T00:46:53.576Z,801.84
2017-06-17T00:46:57.886Z,801.85
2017-06-17T00:47:02.193Z,801.87
2017-06-17T00:47:06.498Z,801.83
2017-06-17T00:47:10.812Z,801.85
2017-06-17T00:47:15.120Z,801.85
2017-06-17T00:47:19.544Z,801.83
2017-06-17T00:47:23.734Z,801.81
2017-06-17T00:47:28.033Z,801.81
2017-06-17T00:47:32.341Z,801.82
2017-06-17T00:47:36.762Z,801.85
2017-06-17T00:47:41.187Z,801.84
2017-06-17T00:47:45.647Z,801.85
2017-06-17T00:47:49.955Z,801.84
2017-06-17T00:47:54.259Z,801.79
2017-06-17T00:47:58.677Z,801.81
2017-06-17T00:48:03.101Z,801.85
2017-06-17T00:48:07.414Z,801.81
2017-06-17T00:48:11.720Z,801.81
2017-06-17T00:48:16.025Z,801.83
2017-06-17T00:48:20.449Z,801.81
2017-06-17T00:48:24.882Z,801.83
2017-06-17T00:48:29.311Z,801.85
2017-06-17T00:48:33.625Z,801.81
2017-06-17T00:48:37.814Z,801.82
2017-06-17T00:48:42.230Z,801.8
2017-06-17T00:48:46.651Z,801.8
2017-06-17T00:48:50.953Z,801.85
2017-06-17T00:48:55.383Z,801.82
2017-06-17T00:48:59.833Z,801.85
2017-06-17T00:49:04.005Z,801.81
2017-06-17T00:49:08.436Z,801.81
2017-06-17T00:49:12.867Z,801.82
2017-06-17T00:49:17.055Z,801.83
2017-06-17T00:49:21.245Z,801.84
2017-06-17T00:49:25.550Z,801.83
2017-06-17T00:49:29.966Z,801.85
2017-06-17T00:49:34.387Z,801.8
2017-06-17T00:49:38.575Z,801.83
2017-06-17T00:49:42.880Z,801.8
2017-06-17T00:49:47.333Z,801.8
2017-06-17T00:49:51.642Z,801.8
2017-06-17T00:49:55.953Z,801.78
2017-06-17T00:50:00.258Z,801.81
2017-06-17T00:50:04.668Z,801.8
2017-06-17T00:50:08.993Z,801.82
2017-06-17T00:50:13.302Z,801.81
2017-06-17T00:50:17.607Z,801.8
2017-06-17T00:50:22.026Z,801.8
2017-06-17T00:50:26.450Z,801.81
2017-06-17T00:50:30.901Z,801.82
2017-06-17T00:50:35.323Z,801.78
2017-06-17T00:50:39.746Z,801.83
2017-06-17T00:50:43.933Z,801.83
2017-06-17T00:50:48.239Z,801.79
2017-06-17T00:50:52.661Z,801.79
2017-06-17T00:50:56.972Z,801.78
2017-06-17T00:51:01.404Z,801.75
2017-06-17T00:51:05.824Z,801.83
2017-06-17T00:51:10.245Z,801.81
2017-06-17T00:51:14.669Z,801.79
2017-06-17T00:51:18.992Z,801.81
2017-06-17T00:51:23.443Z,801.8
2017-06-17T00:51:27.870Z,801.78
2017-06-17T00:51:32.296Z,801.78
2017-06-17T00:51:36.604Z,801.79
2017-06-17T00:51:41.033Z,801.78
2017-06-17T00:51:45.348Z,801.78
2017-06-17T00:51:49.772Z,801.79
2017-06-17T00:51:54.197Z,801.79
2017-06-17T00:51:58.499Z,801.78
2017-06-17T00:52:02.928Z,801.78
2017-06-17T00:52:07.122Z,801.79
2017-06-17T00:52:11.431Z,801.81
2017-06-17T00:52:15.737Z,801.77
2017-06-17T00:52:19.806Z,801.79
2017-06-17T00:52:24.231Z,801.78
2017-06-17T00:52:28.659Z,801.78
2017-06-17T00:52:33.114Z,801.81
2017-06-17T00:52:37.538Z,801.8
2017-06-17T00:52:41.958Z,801.8
2017-06-17T00:52:46.376Z,801.79
2017-06-17T00:52:50.690Z,801.82
2017-06-17T00:52:54.999Z,801.8
2017-06-17T00:52:59.309Z,801.77
2017-06-17T00:53:03.611Z,801.77
2017-06-17T00:53:07.805Z,801.79
2017-06-17T00:53:12.234Z,801.79
2017-06-17T00:53:16.657Z,801.81
2017-06-17T00:53:20.850Z,801.75
2017-06-17T00:53:25.150Z,801.81
2017-06-17T00:53:29.576Z,801.8
2017-06-17T00:53:34.001Z,801.78
2017-06-17T00:53:38.421Z,801.76
2017-06-17T00:53:42.843Z,801.8
2017-06-17T00:53:47.292Z,801.77
2017-06-17T00:53:51.720Z,801.81
2017-06-17T00:53:56.145Z,801.78
2017-06-17T00:54:00.446Z,801.79
2017-06-17T00:54:05.009Z,801.79
2017-06-17T00:54:09.322Z,801.77
2017-06-17T00:54:13.743Z,801.73
2017-06-17T00:54:18.041Z,801.77
2017-06-17T00:54:22.343Z,801.78